• Join FlightAware (Why Join?)
  • Login
  • US Flag 
01:12AM EDT


 

Airport Tracker/Info


-or-


 

Live Flight TrackerFlight Track Log ✈ N785JP ✈ 24-Jan-2014 ✈ KOFK - U42

Flight Track Log - Related Links

Times and Time Zones

All times are in EST time to prevent confusion due to time zone crossing. See the N785JP flight status page for this flight to view local times or setup timezone preferences in your user account.

Time Position Orientation Groundspeed Altitude Reporting Facility
EST Latitude Longitude Course Direction KTS MPH feet Rate Location/Type
08:45PM 41.9742 -97.5625 265° West 111 128 6,900  Level Minneapolis Center
08:46PM 41.9808 -97.6025 283° West 109 125 8,200 1,260 Climbing Minneapolis Center
08:47PM 41.9867 -97.6414 281° West 107 123 9,500 1,140 Climbing Minneapolis Center
08:48PM 41.9908 -97.6856 277° West 115 132 10,600 1,020 Climbing Minneapolis Center
08:49PM 41.9833 -97.8795 270° West  Level FlightAware Approximate
08:49PM 41.9892 -97.7378 268° West 132 152 11,700  Level Minneapolis Center
08:50PM 41.9892 -97.7917 270° West 141 162 12,700 1,260 Climbing Minneapolis Center
08:51PM 41.9886 -97.8544 269° West 141 162 14,300 1,200 Climbing Minneapolis Center
08:52PM 41.9925 -97.9022 276° West 132 152 15,200 780 Climbing Minneapolis Center
08:53PM 41.9914 -97.9569 268° West 140 161 16,000 840 Climbing Minneapolis Center
08:54PM 41.9881 -98.0136 265° West 150 173 17,000 900 Climbing Minneapolis Center
08:55PM 41.9914 -98.0597 276° West 133 153 17,900 720 Climbing Minneapolis Center
08:56PM 41.9908 -98.1061 269° West 126 145 18,600 600 Climbing Minneapolis Center
08:57PM 41.9919 -98.1564 272° West 127 146 19,200 480 Climbing Minneapolis Center
08:58PM 41.9925 -98.2058 271° West 130 150 19,700 480 Climbing Minneapolis Center
08:59PM 41.9922 -98.2544 270° West 131 151 20,300 480 Climbing Minneapolis Center
09:00PM 41.9925 -98.3014 270° West 128 147 20,800 480 Climbing Minneapolis Center
09:01PM 41.9922 -98.3578 270° West 126 145 21,400 480 Climbing Minneapolis Center
09:02PM 41.9925 -98.4019 270° West 121 139 21,800 360 Climbing Minneapolis Center
09:03PM 41.9922 -98.4492 270° West 125 144 22,200 360 Climbing Minneapolis Center
09:04PM 41.9933 -98.4925 272° West 119 137 22,600 360 Climbing Minneapolis Center
09:05PM 41.9933 -98.5383 270° West 122 140 23,000 300 Climbing Minneapolis Center
09:06PM 41.9925 -98.5861 269° West 126 145 23,300 240 Climbing Minneapolis Center
09:07PM 41.9925 -98.6339 270° West 128 147 23,600 240 Climbing Minneapolis Center
09:08PM 41.9931 -98.6919 271° West 129 148 23,900 180 Climbing Minneapolis Center
09:09PM 41.9936 -98.7411 271° West 131 151 24,000  Climbing Minneapolis Center
09:10PM 41.9931 -98.7939 269° West 137 158 24,000  Level Minneapolis Center
09:11PM 41.9928 -98.8486 270° West 144 166 24,000  Level Minneapolis Center
09:12PM 41.9936 -98.9053 271° West 149 171 24,000  Level Minneapolis Center
09:13PM 41.9931 -98.9619 269° West 151 174 24,000  Level Minneapolis Center
09:14PM 41.9928 -99.0194 270° West 154 177 24,000  Level Minneapolis Center
09:15PM 41.9931 -99.0928 270° West 163 188 24,000  Level Minneapolis Center
09:16PM 41.9917 -99.1533 268° West 163 188 24,000  Level Minneapolis Center
09:17PM 41.9919 -99.2139 270° West 162 186 24,000  Level Minneapolis Center
09:18PM 41.9919 -99.2767 270° West 166 191 24,000  Level Minneapolis Center
09:19PM 41.9911 -99.3381 269° West 165 190 24,000  Level Minneapolis Center
09:20PM 41.9917 -99.4003 271° West 166 191 24,000  Level Minneapolis Center
09:22PM 41.9906 -99.4608 269° West 164 189 24,000  Level Minneapolis Center
09:23PM 41.9911 -99.5217 271° West 164 189 24,000  Level Minneapolis Center
09:24PM 41.9903 -99.5956 269° West 165 190 24,000  Level Minneapolis Center
09:25PM 41.9894 -99.6592 269° West 168 193 24,000  Level Minneapolis Center
09:26PM 41.9886 -99.7217 269° West 168 193 24,000  Level Minneapolis Center
09:27PM 41.9878 -99.7919 269° West 165 190 24,000  Level Denver Center
09:28PM 41.9881 -99.8525 270° West 168 193 24,000  Level Denver Center
09:29PM 41.9864 -99.9222 268° West 167 192 24,000  Level Denver Center
09:30PM 41.9858 -99.9814 269° West 166 191 24,000  Level Denver Center
09:31PM 41.9850 -100.0503 269° West 166 191 24,000  Level Denver Center
09:32PM 41.9842 -100.1089 269° West 165 190 24,000  Level Denver Center
09:33PM 41.9833 -100.1783 269° West 166 191 24,000  Level Denver Center
09:34PM 41.9822 -100.2375 269° West 165 190 24,000  Level Denver Center
09:35PM 41.9822 -100.2989 270° West 169 194 24,000  Level Denver Center
09:36PM 41.9811 -100.3686 269° West 167 192 24,000  Level Denver Center
09:37PM 41.9792 -100.4297 268° West 170 196 24,000  Level Denver Center
09:38PM 41.9786 -100.5008 269° West 171 197 24,000  Level Denver Center
09:39PM 41.9778 -100.5619 269° West 171 197 24,000  Level Denver Center
09:40PM 41.9772 -100.6344 269° West 173 199 24,000  Level Denver Center
09:41PM 41.9758 -100.6944 268° West 170 196 24,000  Level Denver Center
09:42PM 41.9742 -100.7675 268° West 175 201 24,000  Level Denver Center
09:43PM 41.9728 -100.8383 269° West 171 197 24,000  Level Denver Center
09:44PM 41.9725 -100.9100 270° West 172 198 24,000  Level Denver Center
09:46PM 41.9708 -100.9733 268° West 177 204 24,000  Level Denver Center
09:47PM 41.9689 -101.0483 268° West 181 208 24,000  Level Denver Center
09:48PM 41.9689 -101.1122 270° West 179 206 24,000  Level Denver Center
09:49PM 41.9672 -101.1761 268° West 180 207 24,000  Level Denver Center
09:50PM 41.9631 -101.2508 266° West 180 207 24,000  Level Denver Center
09:51PM 41.9592 -101.3150 265° West 180 207 24,000  Level Denver Center
09:52PM 41.9544 -101.3908 265° West 183 211 24,000  Level Denver Center
09:53PM 41.9517 -101.4456 266° West 184 212 24,000  Level Denver Center
09:54PM 41.9472 -101.5322 266° West 184 212 24,000  Level Denver Center
09:55PM 41.9428 -101.5983 265° West 185 213 24,000  Level Denver Center
09:56PM 41.9394 -101.6758 267° West 187 215 24,000  Level Denver Center
09:57PM 41.9333 -101.7436 263° West 192 221 24,000  Level Denver Center
09:58PM 41.9311 -101.8100 267° West 187 215 24,000  Level Denver Center
09:59PM 41.9250 -101.8889 264° West 190 219 24,000  Level Denver Center
10:00PM 41.9217 -101.9553 266° West 188 216 24,000  Level Denver Center
10:01PM 41.9153 -102.0347 264° West 191 220 24,000  Level Denver Center
10:02PM 41.9114 -102.1022 266° West 192 221 24,000  Level Denver Center
10:03PM 41.9069 -102.1797 266° West 188 216 24,000  Level Denver Center
10:04PM 41.9017 -102.2519 264° West 189 217 24,000  Level Denver Center
10:05PM 41.8981 -102.3181 266° West 186 214 24,000  Level Denver Center
10:06PM 41.8922 -102.3956 264° West 186 214 24,000  Level Denver Center
10:07PM 41.8889 -102.4606 266° West 184 212 24,000  Level Denver Center
10:08PM 41.8833 -102.5281 264° West 188 216 24,000  Level Denver Center
10:09PM 41.8781 -102.6075 265° West 190 219 24,000  Level Denver Center
10:10PM 41.8742 -102.6753 266° West 189 217 24,000  Level Denver Center
10:11PM 41.8697 -102.7536 266° West 189 217 24,000  Level Denver Center
10:12PM 41.8642 -102.8228 264° West 193 222 24,000  Level Denver Center
10:13PM 41.8575 -102.9050 264° West 198 228 24,000  Level Denver Center
10:14PM 41.8536 -102.9736 266° West 194 223 24,000  Level Denver Center
10:15PM 41.8494 -103.0308 264° West 194 223 24,000  Level Denver Center
10:16PM 41.8428 -103.1244 265° West 196 226 24,000  Level Denver Center
10:17PM 41.8364 -103.1936 263° West 195 224 24,000  Level Denver Center
10:18PM 41.8308 -103.2719 265° West 190 219 24,000  Level Denver Center
10:19PM 41.8269 -103.3397 266° West 189 217 24,000  Level Denver Center
10:20PM 41.8217 -103.4056 264° West 187 215 24,000  Level Denver Center
10:22PM 41.8153 -103.4886 264° West 199 229 24,000  Level Denver Center
10:23PM 41.8094 -103.5597 264° West 201 231 24,000  Level Denver Center
10:24PM 41.8039 -103.6431 265° West 201 231 24,000  Level Denver Center
10:25PM 41.7981 -103.7153 264° West 202 232 24,000  Level Denver Center
10:26PM 41.7917 -103.8000 264° West 205 236 24,000  Level Denver Center
10:27PM 41.7850 -103.8725 263° West 205 236 24,000  Level Denver Center
10:28PM 41.7800 -103.9314 264° West 202 232 24,000  Level Denver Center
10:29PM 41.7692 -104.0269 261° West 203 234 24,000  Level Denver Center
10:30PM 41.7625 -104.0983 263° West 201 231 24,000  Level Denver Center
10:31PM 41.7517 -104.1953 262° West 206 237 24,000  Level Denver Center
10:32PM 41.7406 -104.2925 261° West 207 238 24,000  Level Denver Center
10:33PM 41.7331 -104.3664 262° West 209 241 24,000  Level Denver Center
10:34PM 41.7253 -104.4303 261° West 215 247 24,000  Level Denver Center
10:35PM 41.7142 -104.5275 261° West 208 239 24,000  Level Denver Center
10:36PM 41.7067 -104.5992 262° West 205 236 24,000  Level Denver Center
10:37PM 41.6969 -104.6833 261° West 204 235 24,000  Level Denver Center
10:38PM 41.6883 -104.7581 261° West 209 241 24,000  Level Denver Center
10:39PM 41.6797 -104.8344 261° West 215 247 24,000  Level Denver Center
10:40PM 41.6700 -104.9217 262° West 213 245 24,000  Level Denver Center
10:41PM 41.6614 -104.9914 261° West 205 236 24,000  Level Denver Center
10:42PM 41.6522 -105.0703 261° West 195 224 24,000  Level Denver Center
10:43PM 41.6442 -105.1408 261° West 198 228 24,000  Level Denver Center
10:44PM 41.6342 -105.2236 261° West 226 260 24,000  Level Denver Center
10:45PM 41.6242 -105.3161 262° West 227 261 24,000  Level Denver Center
10:47PM 41.6139 -105.3903 260° West 216 249 24,000  Level Denver Center
10:48PM 41.6044 -105.4744 261° West 209 241 24,000  Level Denver Center
10:49PM 41.5950 -105.5478 260° West 209 241 24,000  Level Denver Center
10:50PM 41.5864 -105.6228 261° West 212 244 24,000  Level Denver Center
10:51PM 41.5761 -105.7100 261° West 215 247 24,000  Level Denver Center
10:52PM 41.5669 -105.7858 261° West 216 249 24,000  Level Denver Center
10:53PM 41.5569 -105.8600 260° West 213 245 24,000  Level Denver Center
10:54PM 41.5453 -105.9608 261° West 216 249 24,000  Level Denver Center
10:55PM 41.5353 -106.0350 260° West 214 246 24,000  Level Denver Center
10:56PM 41.5247 -106.1236 261° West 216 249 24,000  Level Denver Center
10:57PM 41.5153 -106.1956 260° West 209 241 24,000  Level Denver Center
10:58PM 41.5017 -106.2844 258° West 217 250 24,000  Level Denver Center
10:59PM 41.4936 -106.3589 262° West 213 245 24,000  Level Denver Center
11:00PM 41.4811 -106.4575 260° West 212 244 24,000  Level Denver Center
11:01PM 41.4722 -106.5267 260° West 207 238 24,000  Level Denver Center
11:02PM 41.4614 -106.6106 260° West 209 241 24,000  Level Denver Center
11:03PM 41.4517 -106.6875 260° West 217 250 24,000  Level Denver Center
11:04PM 41.4403 -106.7625 259° West 216 249 24,000  Level Denver Center
11:05PM 41.4294 -106.8514 261° West 216 249 24,000  Level Denver Center
11:06PM 41.4200 -106.9272 261° West 216 249 24,000  Level Denver Center
11:07PM 41.4067 -107.0153 259° West 216 249 24,000  Level Denver Center
11:08PM 41.3972 -107.0889 260° West 213 245 24,000  Level Denver Center
11:10PM 41.3847 -107.1850 260° West 206 237 24,000  Level Denver Center
11:11PM 41.3756 -107.2586 261° West 209 241 24,000  Level Denver Center
11:12PM 41.3650 -107.3333 259° West 212 244 24,000  Level Denver Center
11:13PM 41.3536 -107.4178 260° West 209 241 24,000  Level Denver Center
11:14PM 41.3425 -107.4911 259° West 211 243 24,000  Level Denver Center
11:15PM 41.3322 -107.5669 260° West 216 249 24,000  Level Denver Center
11:16PM 41.3194 -107.6528 259° West 213 245 24,000  Level Denver Center
11:17PM 41.3092 -107.7267 260° West 213 245 24,000  Level Denver Center
11:18PM 41.2975 -107.8131 260° West 213 245 24,000  Level Denver Center
11:19PM 41.2867 -107.8878 259° West 215 247 24,000  Level Denver Center
11:20PM 41.2764 -107.9622 260° West 215 247 24,000  Level Denver Center
11:21PM 41.2633 -108.0489 259° West 214 246 24,000  Level Denver Center
11:22PM 41.2525 -108.1233 259° West 214 246 24,000  Level Denver Center
11:23PM 41.2414 -108.1992 259° West 218 251 24,000  Level Denver Center
11:24PM 41.2275 -108.2875 258° West 218 251 24,000  Level Denver Center
11:25PM 41.2172 -108.3636 260° West 219 252 24,000  Level Denver Center
11:26PM 41.2100 -108.4158 260° West 221 254 24,000  Level Salt Lake Center
11:27PM 41.1958 -108.5053 258° West 222 255 24,000  Level Salt Lake Center
11:28PM 41.1853 -108.5828 260° West 223 257 24,000  Level Salt Lake Center
11:29PM 41.1731 -108.6578 258° West 220 253 24,000  Level Salt Lake Center
11:30PM 41.1603 -108.7481 259° West 223 257 24,000  Level Salt Lake Center
11:31PM 41.1478 -108.8275 258° West 229 264 24,000  Level Salt Lake Center
11:32PM 41.1358 -108.9050 258° West 225 259 24,000  Level Salt Lake Center
11:33PM 41.1217 -108.9969 258° West 227 261 24,000  Level Salt Lake Center
11:34PM 41.1097 -109.0758 259° West 228 262 24,000  Level Salt Lake Center
11:35PM 41.0967 -109.1550 258° West 229 264 24,000  Level Salt Lake Center
11:36PM 41.0833 -109.2417 258° West 216 249 24,000  Level Salt Lake Center
11:37PM 41.0722 -109.3181 259° West 219 252 24,000  Level Salt Lake Center
11:38PM 41.0603 -109.3956 258° West 223 257 24,000  Level Salt Lake Center
11:39PM 41.0453 -109.4892 258° West 231 266 24,000  Level Salt Lake Center
11:40PM 41.0328 -109.5672 258° West 229 264 24,000  Level Salt Lake Center
11:41PM 41.0200 -109.6453 258° West 226 260 24,000  Level Salt Lake Center
11:42PM 41.0056 -109.7378 258° West 229 264 24,000  Level Salt Lake Center
11:43PM 40.9928 -109.8175 258° West 231 266 24,000  Level Salt Lake Center
11:44PM 40.9783 -109.9078 258° West 226 260 24,000 -300 Level Salt Lake Center
11:45PM 40.9647 -109.9892 258° West 234 269 23,400 -720 Descending Salt Lake Center
11:46PM 40.9506 -110.0786 258° West 255 293 22,600 -780 Descending Salt Lake Center
11:47PM 40.9333 -110.1825 258° West 259 298 21,900 -780 Descending Salt Lake Center
11:48PM 40.9183 -110.2717 257° West 259 298 21,100 -780 Descending Salt Lake Center
11:49PM 40.9031 -110.3633 258° West 265 305 20,400 -780 Descending Salt Lake Center
11:50PM 40.8850 -110.4689 257° West 265 305 19,600 -720 Descending Salt Lake Center
11:51PM 40.8706 -110.5597 258° West 265 305 19,000 -660 Descending Salt Lake Center
11:52PM 40.8536 -110.6564 257° West 263 303 18,300 -660 Descending Salt Lake Center
11:53PM 40.8381 -110.7503 258° West 262 302 17,700 -360 Descending Salt Lake Center
11:54PM 40.8228 -110.8439 258° West 261 300 17,600 -420 Descending Salt Lake Center
11:55PM 40.8064 -110.9381 257° West 263 303 16,900 -600 Descending Salt Lake Center
11:56PM 40.7894 -111.0328 257° West 266 306 16,400 -480 Descending Salt Lake Center
11:57PM 40.7736 -111.1258 257° West 262 302 16,000 -540 Descending Salt Lake Center
11:58PM 40.7583 -111.2203 258° West 263 303 15,400 -360 Descending Salt Lake Center
11:59PM 40.7417 -111.3111 256° West 258 297 15,300 -240 Descending Salt Lake Center
12:00AM 40.7267 -111.3994 257° West 248 285 15,000 -180 Descending Salt Lake Center
12:01AM 40.7114 -111.4883 257° West 248 285 15,000 -360 Level Salt Lake Center
12:01AM 40.7025 -111.5306 254° West 247 284 14,600 -1,080 Descending Salt Lake Center
12:01AM 40.6994 -111.5372 239° Southwest 247 284 14,600 -420 Level Salt Lake Center
12:02AM 40.6944 -111.5967 264° West 251 289 14,300 -840 Descending Salt Lake Center
12:02AM 40.6878 -111.6292 255° West 254 292 13,800 -1,320 Descending Salt Lake Center
12:03AM 40.6825 -111.6881 263° West 253 291 13,000 -1,200 Descending Salt Lake Center
12:03AM 40.6778 -111.7203 259° West 250 288 12,600 -1,620 Descending Salt Lake Center
12:04AM 40.6786 -111.7775 271° West 245 282 11,400 -2,040 Descending Salt Lake Center
12:04AM 40.6644 -111.8042 235° Southwest 244 281 10,600 -1,800 Descending Salt Lake Center
12:05AM 40.6294 -111.8228 202° Southwest 221 254 9,600 -1,380 Descending Salt Lake Center
12:06AM 40.6089 -111.8289 193° South 198 228 9,200 -1,380 Descending Salt Lake Center
12:06AM 40.5825 -111.8444 204° Southwest 174 200 8,200 -1,500 Descending Salt Lake Center
12:07AM 40.5733 -111.8664 241° Southwest 172 198 7,700 -600 Descending Salt Lake Center
12:07AM 40.5667 -111.8983 255° West 173 199 7,600 -180 Descending Salt Lake Center
12:09AM 40.6085 -111.9730 270° West  Level Estimated
12:16AM 40.6167 -111.9833 270° West  Level FlightAware Approximate
12:17AM 40.6196 -111.9929 270° West  Level Estimated